createdAt,value
2018-08-22T00:00:56.250Z,62.58
2018-08-22T00:01:56.292Z,63.25
2018-08-22T00:02:56.331Z,63.54
2018-08-22T00:03:56.370Z,63.35
2018-08-22T00:04:56.411Z,62.87
2018-08-22T00:05:56.451Z,63.06
2018-08-22T00:06:56.491Z,62.10
2018-08-22T00:07:56.547Z,62.77
2018-08-22T00:08:56.572Z,63.06
2018-08-22T00:09:56.615Z,62.90
2018-08-22T00:10:56.658Z,62.96
2018-08-22T00:11:56.693Z,61.62
2018-08-22T00:12:56.729Z,61.46
2018-08-22T00:13:56.769Z,61.14
2018-08-22T00:14:56.809Z,61.75
2018-08-22T00:15:56.850Z,63.19
2018-08-22T00:16:56.888Z,62.32
2018-08-22T00:17:56.936Z,61.91
2018-08-22T00:18:56.969Z,61.72
2018-08-22T00:19:57.009Z,62.58
2018-08-22T00:20:57.046Z,63.09
2018-08-22T00:21:57.089Z,62.52
2018-08-22T00:22:57.127Z,63.16
2018-08-22T00:23:57.180Z,62.48
2018-08-22T00:24:57.213Z,61.52
2018-08-22T00:25:57.247Z,61.52
2018-08-22T00:26:57.302Z,61.33
2018-08-22T00:27:57.327Z,61.52
2018-08-22T00:28:57.366Z,61.52
2018-08-22T00:29:57.404Z,62.39
2018-08-22T00:30:57.444Z,62.01
2018-08-22T00:31:57.485Z,63.25
2018-08-22T00:32:57.525Z,63.35
2018-08-22T00:33:57.564Z,62.87
2018-08-22T00:34:57.604Z,62.39
2018-08-22T00:35:57.644Z,63.16
2018-08-22T00:36:57.684Z,63.16
2018-08-22T00:37:57.722Z,62.10
2018-08-22T00:38:57.769Z,61.72
2018-08-22T00:39:57.803Z,61.33
2018-08-22T00:40:57.843Z,60.28
2018-08-22T00:41:57.884Z,61.33
2018-08-22T00:42:57.927Z,61.24
2018-08-22T00:43:57.962Z,61.33
2018-08-22T00:44:58.004Z,61.14
2018-08-22T00:45:58.042Z,60.08
2018-08-22T00:46:58.082Z,59.70
2018-08-22T00:47:58.122Z,59.51
2018-08-22T00:48:58.161Z,59.61
2018-08-22T00:49:58.203Z,59.99
2018-08-22T00:50:58.242Z,60.85
2018-08-22T00:51:58.283Z,61.05
2018-08-22T00:52:58.321Z,61.05
2018-08-22T00:53:58.363Z,61.05
2018-08-22T00:54:58.403Z,61.05
2018-08-22T00:55:58.452Z,61.05
2018-08-22T00:56:58.482Z,60.75
2018-08-22T00:57:58.521Z,59.32
2018-08-22T00:58:58.563Z,57.59
2018-08-22T00:59:58.611Z,58.36
2018-08-22T01:00:58.641Z,59.03
2018-08-22T01:01:58.680Z,59.89
2018-08-22T01:02:58.721Z,59.99
2018-08-22T01:03:58.769Z,59.89
2018-08-22T01:04:58.800Z,60.66
2018-08-22T01:05:58.841Z,60.28
2018-08-22T01:06:58.881Z,60.18
2018-08-22T01:07:58.919Z,59.61
2018-08-22T01:08:58.960Z,59.89
2018-08-22T01:09:58.998Z,58.84
2018-08-22T01:10:59.039Z,59.41
2018-08-22T01:11:59.079Z,60.47
2018-08-22T01:12:59.118Z,60.66
2018-08-22T01:13:59.161Z,59.99
2018-08-22T01:14:59.199Z,59.70
2018-08-22T01:15:59.238Z,59.61
2018-08-22T01:16:59.296Z,59.89
2018-08-22T01:17:59.318Z,59.32
2018-08-22T01:18:59.368Z,59.32
2018-08-22T01:19:59.399Z,59.32
2018-08-22T01:20:59.440Z,57.30
2018-08-22T01:21:59.477Z,56.53
2018-08-22T01:22:59.521Z,56.63
2018-08-22T01:23:59.567Z,57.01
2018-08-22T01:24:59.596Z,56.92
2018-08-22T01:25:59.669Z,55.86
2018-08-22T01:26:59.676Z,55.57
2018-08-22T01:27:59.719Z,55.47
2018-08-22T01:28:59.757Z,55.86
2018-08-22T01:29:59.797Z,56.34
2018-08-22T01:30:59.837Z,56.15
2018-08-22T01:31:59.875Z,55.96
2018-08-22T01:32:59.914Z,56.05
2018-08-22T01:33:59.954Z,55.38
2018-08-22T01:34:59.993Z,55.77
2018-08-22T01:36:00.035Z,55.47
2018-08-22T01:37:00.073Z,56.15
2018-08-22T01:38:00.113Z,56.15
2018-08-22T01:39:00.154Z,56.24
2018-08-22T01:40:00.194Z,56.63
2018-08-22T01:41:00.233Z,55.86
2018-08-22T01:42:00.273Z,56.24
2018-08-22T01:43:00.330Z,55.19
2018-08-22T01:44:00.353Z,54.04
2018-08-22T01:45:00.395Z,54.61
2018-08-22T01:46:00.432Z,54.90
2018-08-22T01:47:00.475Z,55.29
2018-08-22T01:48:00.514Z,54.61
2018-08-22T01:49:00.554Z,54.55
2018-08-22T01:50:00.593Z,54.80
2018-08-22T01:51:00.634Z,54.61
2018-08-22T01:52:00.672Z,55.10
2018-08-22T01:53:00.715Z,56.34
2018-08-22T01:54:00.757Z,56.44
2018-08-22T01:55:00.793Z,55.86
2018-08-22T01:56:00.834Z,56.46
2018-08-22T01:57:00.871Z,57.11
2018-08-22T01:58:00.912Z,56.92
2018-08-22T01:59:00.952Z,57.33
2018-08-22T02:00:00.991Z,56.56
2018-08-22T02:01:01.031Z,55.96
2018-08-22T02:02:01.071Z,55.00
2018-08-22T02:03:01.110Z,55.79
2018-08-22T02:04:01.150Z,56.66
2018-08-22T02:05:01.189Z,56.76
2018-08-22T02:06:01.238Z,57.14
2018-08-22T02:07:01.270Z,56.95
2018-08-22T02:08:01.311Z,57.04
2018-08-22T02:09:01.349Z,56.46
2018-08-22T02:10:01.401Z,56.66
2018-08-22T02:11:01.429Z,57.14
2018-08-22T02:12:01.478Z,57.52
2018-08-22T02:13:01.507Z,57.90
2018-08-22T02:14:01.547Z,56.85
2018-08-22T02:15:01.590Z,57.90
2018-08-22T02:16:01.628Z,57.62
2018-08-22T02:17:01.667Z,57.14
2018-08-22T02:18:01.708Z,57.43
2018-08-22T02:19:01.746Z,57.14
2018-08-22T02:20:01.790Z,57.14
2018-08-22T02:21:01.832Z,57.14
2018-08-22T02:22:01.866Z,56.82
2018-08-22T02:23:01.906Z,56.56
2018-08-22T02:24:01.946Z,56.95
2018-08-22T02:25:01.996Z,56.08
2018-08-22T02:26:02.031Z,56.63
2018-08-22T02:27:02.064Z,56.27
2018-08-22T02:28:02.116Z,57.14
2018-08-22T02:29:02.145Z,56.85
2018-08-22T02:30:02.186Z,56.27
2018-08-22T02:31:02.224Z,56.46
2018-08-22T02:32:02.264Z,57.14
2018-08-22T02:33:02.303Z,58.20
2018-08-22T02:34:02.343Z,58.96
2018-08-22T02:35:02.383Z,58.00
2018-08-22T02:36:02.426Z,58.39
2018-08-22T02:37:02.464Z,58.96
2018-08-22T02:38:02.503Z,59.06
2018-08-22T02:39:02.543Z,59.25
2018-08-22T02:40:02.584Z,59.83
2018-08-22T02:41:02.626Z,59.83
2018-08-22T02:42:02.665Z,59.92
2018-08-22T02:43:02.702Z,60.02
2018-08-22T02:44:02.742Z,60.88
2018-08-22T02:45:02.783Z,61.08
2018-08-22T02:46:02.822Z,61.27
2018-08-22T02:47:02.871Z,61.08
2018-08-22T02:48:02.903Z,61.27
2018-08-22T02:49:02.942Z,59.83
2018-08-22T02:50:02.982Z,59.54
2018-08-22T02:51:03.022Z,59.06
2018-08-22T02:52:03.062Z,58.29
2018-08-22T02:53:03.107Z,58.39
2018-08-22T02:54:03.143Z,58.10
2018-08-22T02:55:03.188Z,58.96
2018-08-22T02:56:03.223Z,58.77
2018-08-22T02:57:03.264Z,59.64
2018-08-22T02:58:03.301Z,59.83
2018-08-22T02:59:03.342Z,59.19
2018-08-22T03:00:03.381Z,59.95
2018-08-22T03:01:03.419Z,59.19
2018-08-22T03:02:03.460Z,58.61
2018-08-22T03:03:03.502Z,58.48
2018-08-22T03:04:03.541Z,58.58
2018-08-22T03:05:03.589Z,58.67
2018-08-22T03:06:03.620Z,58.77
2018-08-22T03:07:03.660Z,59.06
2018-08-22T03:08:03.703Z,58.00
2018-08-22T03:09:03.739Z,58.00
2018-08-22T03:10:03.781Z,57.81
2018-08-22T03:11:03.821Z,58.20
2018-08-22T03:12:03.861Z,58.20
2018-08-22T03:13:03.903Z,57.62
2018-08-22T03:14:03.940Z,57.52
2018-08-22T03:15:03.981Z,56.08
2018-08-22T03:16:04.020Z,55.12
2018-08-22T03:17:04.067Z,54.83
2018-08-22T03:18:04.100Z,52.81
2018-08-22T03:19:04.140Z,52.91
2018-08-22T03:20:04.178Z,53.20
2018-08-22T03:21:04.232Z,52.05
2018-08-22T03:22:04.263Z,53.97
2018-08-22T03:23:04.299Z,56.18
2018-08-22T03:24:04.338Z,56.66
2018-08-22T03:25:04.378Z,56.95
2018-08-22T03:26:04.424Z,56.56
2018-08-22T03:27:04.458Z,56.66
2018-08-22T03:28:04.499Z,56.66
2018-08-22T03:29:04.536Z,56.08
2018-08-22T03:30:04.582Z,57.14
2018-08-22T03:31:04.617Z,57.23
2018-08-22T03:32:04.661Z,55.60
2018-08-22T03:33:04.695Z,55.89
2018-08-22T03:34:04.736Z,55.89
2018-08-22T03:35:04.780Z,56.37
2018-08-22T03:36:04.817Z,56.66
2018-08-22T03:37:04.856Z,55.89
2018-08-22T03:38:04.906Z,56.08
2018-08-22T03:39:04.935Z,55.12
2018-08-22T03:40:04.977Z,55.89
2018-08-22T03:41:05.016Z,55.69
2018-08-22T03:42:05.056Z,55.12
2018-08-22T03:43:05.094Z,55.32
2018-08-22T03:44:05.136Z,55.12
2018-08-22T03:45:05.184Z,55.12
2018-08-22T03:46:05.215Z,55.41
2018-08-22T03:47:05.261Z,54.74
2018-08-22T03:48:05.295Z,54.93
2018-08-22T03:49:05.343Z,54.55
2018-08-22T03:50:05.375Z,55.12
2018-08-22T03:51:05.415Z,55.32
2018-08-22T03:52:05.456Z,55.69
2018-08-22T03:53:05.494Z,55.99
2018-08-22T03:54:05.536Z,55.22
2018-08-22T03:55:05.577Z,53.97
2018-08-22T03:56:05.622Z,54.64
2018-08-22T03:57:05.654Z,55.89
2018-08-22T03:58:05.694Z,55.99
2018-08-22T03:59:05.736Z,56.27
2018-08-22T04:00:05.773Z,56.08
2018-08-22T04:01:05.811Z,55.41
2018-08-22T04:02:05.855Z,54.74
2018-08-22T04:03:05.893Z,55.02
2018-08-22T04:04:05.932Z,54.45
2018-08-22T04:05:05.977Z,54.64
2018-08-22T04:06:06.014Z,54.83
2018-08-22T04:07:06.059Z,54.35
2018-08-22T04:08:06.093Z,54.93
2018-08-22T04:09:06.182Z,55.51
2018-08-22T04:10:06.173Z,55.32
2018-08-22T04:11:06.215Z,54.64
2018-08-22T04:12:06.252Z,55.32
2018-08-22T04:13:06.293Z,55.32
2018-08-22T04:14:06.331Z,55.79
2018-08-22T04:15:06.372Z,55.89
2018-08-22T04:16:06.413Z,55.99
2018-08-22T04:17:06.451Z,55.89
2018-08-22T04:18:06.490Z,55.32
2018-08-22T04:19:06.543Z,54.57
2018-08-22T04:20:06.579Z,54.64
2018-08-22T04:21:06.611Z,53.70
2018-08-22T04:22:06.650Z,53.80
2018-08-22T04:23:06.691Z,54.16
2018-08-22T04:24:06.736Z,54.38
2018-08-22T04:25:06.771Z,54.57
2018-08-22T04:26:06.810Z,53.52
2018-08-22T04:27:06.851Z,52.46
2018-08-22T04:28:06.895Z,53.70
2018-08-22T04:29:06.931Z,54.83
2018-08-22T04:30:06.973Z,54.86
2018-08-22T04:31:07.014Z,54.00
2018-08-22T04:32:07.056Z,54.19
2018-08-22T04:33:07.090Z,53.32
2018-08-22T04:34:07.136Z,54.00
2018-08-22T04:35:07.172Z,54.38
2018-08-22T04:36:07.209Z,54.47
2018-08-22T04:37:07.259Z,54.19
2018-08-22T04:38:07.291Z,54.00
2018-08-22T04:39:07.330Z,53.13
2018-08-22T04:40:07.378Z,53.61
2018-08-22T04:41:07.409Z,53.32
2018-08-22T04:42:07.449Z,54.00
2018-08-22T04:43:07.490Z,53.61
2018-08-22T04:44:07.529Z,52.08
2018-08-22T04:45:07.569Z,52.75
2018-08-22T04:46:07.611Z,52.75
2018-08-22T04:47:07.649Z,53.42
2018-08-22T04:48:07.693Z,53.23
2018-08-22T04:49:07.730Z,54.38
2018-08-22T04:50:07.784Z,54.47
2018-08-22T04:51:07.808Z,52.94
2018-08-22T04:52:07.850Z,52.17
2018-08-22T04:53:07.892Z,52.55
2018-08-22T04:54:07.929Z,52.36
2018-08-22T04:55:07.970Z,52.46
2018-08-22T04:56:08.008Z,52.75
2018-08-22T04:57:08.050Z,53.70
2018-08-22T04:58:08.090Z,52.84
2018-08-22T04:59:08.129Z,53.03
2018-08-22T05:00:08.169Z,53.61
2018-08-22T05:01:08.210Z,53.61
2018-08-22T05:02:08.248Z,53.70
2018-08-22T05:03:08.289Z,53.90
2018-08-22T05:04:08.329Z,54.19
2018-08-22T05:05:08.369Z,54.57
2018-08-22T05:06:08.426Z,54.47
2018-08-22T05:07:08.450Z,54.09
2018-08-22T05:08:08.490Z,54.38
2018-08-22T05:09:08.530Z,56.21
2018-08-22T05:10:08.571Z,54.69
2018-08-22T05:11:08.621Z,53.74
2018-08-22T05:12:08.653Z,51.72
2018-08-22T05:13:08.692Z,51.04
2018-08-22T05:14:08.731Z,51.72
2018-08-22T05:15:08.772Z,51.91
2018-08-22T05:16:08.812Z,51.81
2018-08-22T05:17:08.852Z,52.00
2018-08-22T05:18:08.890Z,53.92
2018-08-22T05:19:08.936Z,54.69
2018-08-22T05:20:08.971Z,54.69
2018-08-22T05:21:09.017Z,54.60
2018-08-22T05:22:09.054Z,54.72
2018-08-22T05:23:09.093Z,55.37
2018-08-22T05:24:09.135Z,55.49
2018-08-22T05:25:09.174Z,55.40
2018-08-22T05:26:09.215Z,55.20
2018-08-22T05:27:09.256Z,55.78
2018-08-22T05:28:09.297Z,55.20
2018-08-22T05:29:09.335Z,56.36
2018-08-22T05:30:09.434Z,58.95
2018-08-22T05:31:09.416Z,61.46
2018-08-22T05:32:09.457Z,61.26
2018-08-22T05:33:09.498Z,61.46
2018-08-22T05:34:09.539Z,65.20
2018-08-22T05:35:09.578Z,65.69
2018-08-22T05:36:09.618Z,66.46
2018-08-22T05:37:09.663Z,65.69
2018-08-22T05:38:09.706Z,67.32
2018-08-22T05:39:09.739Z,68.60
2018-08-22T05:40:09.780Z,68.51
2018-08-22T05:41:09.821Z,67.65
2018-08-22T05:42:09.860Z,67.83
2018-08-22T05:43:09.902Z,69.95
2018-08-22T05:44:09.942Z,71.97
2018-08-22T05:45:09.983Z,71.49
2018-08-22T05:46:10.025Z,71.69
2018-08-22T05:47:10.064Z,71.59
2018-08-22T05:48:10.113Z,72.94
2018-08-22T05:49:10.208Z,71.11
2018-08-22T05:50:10.186Z,72.84
2018-08-22T05:51:10.226Z,71.78
2018-08-22T05:52:10.270Z,71.11
2018-08-22T05:53:10.307Z,70.92
2018-08-22T05:54:10.346Z,72.07
2018-08-22T05:55:10.388Z,72.94
2018-08-22T05:56:10.428Z,71.78
2018-08-22T05:57:10.468Z,72.07
2018-08-22T05:58:10.510Z,71.59
2018-08-22T05:59:10.558Z,70.24
2018-08-22T06:00:10.591Z,70.72
2018-08-22T06:01:10.636Z,70.72
2018-08-22T06:02:10.674Z,70.34
2018-08-22T06:03:10.760Z,70.72
2018-08-22T06:04:10.755Z,71.59
2018-08-22T06:05:10.793Z,71.59
2018-08-22T06:06:10.834Z,70.92
2018-08-22T06:07:10.877Z,70.82
2018-08-22T06:08:10.916Z,70.62
2018-08-22T06:09:11.060Z,70.72
2018-08-22T06:10:10.997Z,68.99
2018-08-22T06:11:11.045Z,69.38
2018-08-22T06:12:11.079Z,71.30
2018-08-22T06:13:11.118Z,72.94
2018-08-22T06:14:11.160Z,72.84
2018-08-22T06:15:11.201Z,71.88
2018-08-22T06:16:11.242Z,72.94
2018-08-22T06:17:11.282Z,73.99
2018-08-22T06:18:11.324Z,74.51
2018-08-22T06:19:11.368Z,71.62
2018-08-22T06:20:11.406Z,74.19
2018-08-22T06:21:11.447Z,73.26
2018-08-22T06:22:11.486Z,74.41
2018-08-22T06:23:11.532Z,75.38
2018-08-22T06:24:11.581Z,75.96
2018-08-22T06:25:11.609Z,75.76
2018-08-22T06:26:11.649Z,76.53
2018-08-22T06:27:11.690Z,76.92
2018-08-22T06:28:11.732Z,76.82
2018-08-22T06:29:11.773Z,77.11
2018-08-22T06:30:11.814Z,77.31
2018-08-22T06:31:11.853Z,77.40
2018-08-22T06:32:11.903Z,77.50
2018-08-22T06:33:11.935Z,77.40
2018-08-22T06:34:11.975Z,77.73
2018-08-22T06:35:12.015Z,77.31
2018-08-22T06:36:12.121Z,77.69
2018-08-22T06:37:12.099Z,78.94
2018-08-22T06:38:12.149Z,77.63
2018-08-22T06:39:12.178Z,78.02
2018-08-22T06:40:12.220Z,79.46
2018-08-22T06:41:12.262Z,79.85
2018-08-22T06:42:12.303Z,78.31
2018-08-22T06:43:12.343Z,80.14
2018-08-22T06:44:12.409Z,79.66
2018-08-22T06:45:12.425Z,80.33
2018-08-22T06:46:12.466Z,79.66
2018-08-22T06:47:12.506Z,79.85
2018-08-22T06:48:12.547Z,80.14
2018-08-22T06:49:12.589Z,80.33
2018-08-22T06:50:12.692Z,80.56
2018-08-22T06:51:12.679Z,81.43
2018-08-22T06:52:12.712Z,81.43
2018-08-22T06:53:12.752Z,81.91
2018-08-22T06:54:12.793Z,81.33
2018-08-22T06:55:12.835Z,81.62
2018-08-22T06:56:12.877Z,82.20
2018-08-22T06:57:12.933Z,82.49
2018-08-22T06:58:12.959Z,82.68
2018-08-22T06:59:12.999Z,82.01
2018-08-22T07:00:13.041Z,82.20
2018-08-22T07:01:13.081Z,82.59
2018-08-22T07:02:13.129Z,83.36
2018-08-22T07:03:13.168Z,83.26
2018-08-22T07:04:13.204Z,82.87
2018-08-22T07:05:13.246Z,83.11
2018-08-22T07:06:13.286Z,83.20
2018-08-22T07:07:13.328Z,84.27
2018-08-22T07:08:13.499Z,84.17
2018-08-22T07:09:13.408Z,84.84
2018-08-22T07:10:13.454Z,84.55
2018-08-22T07:11:13.492Z,84.75
2018-08-22T07:12:13.585Z,85.23
2018-08-22T07:13:13.573Z,83.78
2018-08-22T07:14:13.616Z,85.61
2018-08-22T07:15:13.660Z,84.79
2018-08-22T07:16:13.698Z,85.75
2018-08-22T07:17:13.738Z,85.37
2018-08-22T07:18:13.784Z,86.91
2018-08-22T07:19:13.824Z,86.52
2018-08-22T07:20:13.864Z,86.91
2018-08-22T07:21:13.906Z,87.40
2018-08-22T07:22:13.954Z,87.40
2018-08-22T07:23:13.989Z,87.34
2018-08-22T07:24:14.031Z,88.50
2018-08-22T07:25:14.069Z,88.40
2018-08-22T07:26:14.117Z,88.40
2018-08-22T07:27:14.154Z,88.89
2018-08-22T07:28:14.201Z,88.50
2018-08-22T07:29:14.235Z,88.79
2018-08-22T07:30:14.452Z,88.89
2018-08-22T07:31:14.320Z,88.79
2018-08-22T07:32:14.363Z,88.89
2018-08-22T07:33:14.403Z,88.93
2018-08-22T07:34:14.448Z,89.70
2018-08-22T07:35:14.484Z,89.70
2018-08-22T07:36:14.535Z,89.79
2018-08-22T07:37:14.572Z,90.37
2018-08-22T07:38:14.610Z,90.71
2018-08-22T07:39:14.669Z,90.61
2018-08-22T07:40:14.697Z,91.19
2018-08-22T07:41:14.820Z,90.47
2018-08-22T07:42:14.778Z,90.75
2018-08-22T07:43:14.820Z,90.85
2018-08-22T07:44:14.861Z,91.67
2018-08-22T07:45:14.902Z,91.67
2018-08-22T07:46:14.948Z,91.77
2018-08-22T07:47:15.050Z,92.58
2018-08-22T07:48:15.028Z,92.40
2018-08-22T07:49:15.071Z,92.97
2018-08-22T07:50:15.174Z,92.68
2018-08-22T07:51:15.154Z,92.88
2018-08-22T07:52:15.201Z,93.12
2018-08-22T07:53:15.258Z,93.02
2018-08-22T07:54:15.283Z,93.31
2018-08-22T07:55:15.326Z,93.26
2018-08-22T07:56:15.387Z,93.35
2018-08-22T07:57:15.412Z,93.16
2018-08-22T07:58:15.451Z,93.55
2018-08-22T07:59:15.547Z,93.55
2018-08-22T08:00:15.624Z,93.26
2018-08-22T08:01:15.578Z,93.55
2018-08-22T08:02:15.623Z,93.51
2018-08-22T08:03:15.668Z,93.60
2018-08-22T08:04:15.711Z,94.18
2018-08-22T08:05:15.786Z,93.89
2018-08-22T08:06:15.793Z,94.57
2018-08-22T08:07:15.836Z,94.18
2018-08-22T08:08:15.881Z,93.70
2018-08-22T08:09:15.921Z,94.62
2018-08-22T08:10:15.971Z,94.57
2018-08-22T08:11:16.015Z,94.28
2018-08-22T08:12:16.050Z,94.04
2018-08-22T08:13:16.093Z,93.94
2018-08-22T08:14:16.137Z,93.99
2018-08-22T08:15:16.179Z,94.13
2018-08-22T08:16:16.230Z,93.94
2018-08-22T08:17:16.307Z,94.23
2018-08-22T08:18:16.315Z,94.47
2018-08-22T08:19:16.349Z,94.62
2018-08-22T08:20:16.400Z,94.13
2018-08-22T08:21:16.438Z,93.79
2018-08-22T08:22:16.479Z,93.94
2018-08-22T08:23:16.521Z,94.04
2018-08-22T08:24:16.565Z,93.99
2018-08-22T08:25:16.607Z,94.18
2018-08-22T08:26:16.694Z,94.47
2018-08-22T08:27:16.694Z,94.04
2018-08-22T08:28:16.737Z,94.42
2018-08-22T08:29:16.777Z,94.32
2018-08-22T08:30:16.820Z,93.65
2018-08-22T08:31:16.862Z,94.23
2018-08-22T08:32:16.907Z,94.13
2018-08-22T08:33:16.949Z,94.13
2018-08-22T08:34:16.993Z,93.45
2018-08-22T08:35:17.034Z,93.84
2018-08-22T08:36:17.077Z,93.35
2018-08-22T08:37:17.119Z,93.35
2018-08-22T08:38:17.161Z,93.55
2018-08-22T08:39:17.206Z,93.94
2018-08-22T08:40:17.249Z,93.35
2018-08-22T08:41:17.333Z,93.60
2018-08-22T08:42:17.333Z,93.79
2018-08-22T08:43:17.410Z,93.30
2018-08-22T08:44:17.426Z,93.50
2018-08-22T08:45:17.462Z,92.72
2018-08-22T08:46:17.505Z,93.21
2018-08-22T08:47:17.558Z,93.21
2018-08-22T08:48:17.592Z,93.30
2018-08-22T08:49:17.668Z,93.79
2018-08-22T08:50:17.686Z,93.70
2018-08-22T08:51:17.720Z,93.21
2018-08-22T08:52:17.765Z,93.30
2018-08-22T08:53:17.805Z,93.79
2018-08-22T08:54:17.856Z,92.67
2018-08-22T08:55:17.897Z,92.29
2018-08-22T08:56:17.935Z,92.86
2018-08-22T08:57:18.026Z,93.74
2018-08-22T08:58:18.021Z,92.67
2018-08-22T08:59:18.067Z,92.67
2018-08-22T09:00:18.106Z,92.77
2018-08-22T09:01:18.171Z,92.67
2018-08-22T09:02:18.214Z,92.09
2018-08-22T09:03:18.234Z,92.96
2018-08-22T09:04:18.310Z,92.58
2018-08-22T09:05:18.321Z,92.67
2018-08-22T09:06:18.365Z,92.09
2018-08-22T09:07:18.409Z,92.09
2018-08-22T09:08:18.450Z,92.58
2018-08-22T09:09:18.593Z,92.29
2018-08-22T09:10:18.536Z,91.94
2018-08-22T09:11:18.580Z,92.23
2018-08-22T09:12:18.731Z,92.04
2018-08-22T09:13:18.666Z,92.52
2018-08-22T09:14:18.719Z,91.75
2018-08-22T09:15:18.753Z,91.65
2018-08-22T09:16:18.794Z,92.43
2018-08-22T09:17:18.886Z,92.04
2018-08-22T09:18:18.880Z,90.78
2018-08-22T09:19:18.925Z,91.55
2018-08-22T09:20:18.969Z,90.48
2018-08-22T09:21:19.049Z,90.48
2018-08-22T09:22:19.052Z,90.30
2018-08-22T09:23:19.097Z,90.34
2018-08-22T09:24:19.152Z,90.53
2018-08-22T09:25:19.187Z,89.81
2018-08-22T09:26:19.225Z,89.85
2018-08-22T09:27:19.269Z,90.34
2018-08-22T09:28:19.312Z,90.14
2018-08-22T09:29:19.355Z,91.31
2018-08-22T09:30:19.398Z,91.21
2018-08-22T09:31:19.443Z,90.63
2018-08-22T09:32:19.485Z,89.37
2018-08-22T09:33:19.537Z,89.70
2018-08-22T09:34:19.572Z,90.44
2018-08-22T09:35:19.615Z,89.07
2018-08-22T09:36:19.657Z,88.30
2018-08-22T09:37:19.702Z,89.31
2018-08-22T09:38:19.746Z,88.01
2018-08-22T09:39:19.825Z,88.24
2018-08-22T09:40:19.852Z,87.23
2018-08-22T09:41:19.875Z,87.57
2018-08-22T09:42:19.919Z,88.73
2018-08-22T09:43:20.138Z,88.34
2018-08-22T09:44:20.022Z,87.86
2018-08-22T09:45:20.048Z,87.47
2018-08-22T09:46:20.091Z,88.24
2018-08-22T09:47:20.137Z,88.93
2018-08-22T09:48:20.178Z,89.12
2018-08-22T09:49:20.229Z,88.83
2018-08-22T09:50:20.266Z,87.22
2018-08-22T09:51:20.308Z,87.22
2018-08-22T09:52:20.352Z,87.32
2018-08-22T09:53:20.394Z,86.54
2018-08-22T09:54:20.446Z,85.38
2018-08-22T09:55:20.483Z,85.67
2018-08-22T09:56:20.526Z,84.60
2018-08-22T09:57:20.569Z,86.74
2018-08-22T09:58:20.691Z,86.54
2018-08-22T09:59:20.656Z,84.55
2018-08-22T10:00:20.703Z,84.21
2018-08-22T10:01:20.745Z,82.95
2018-08-22T10:02:20.787Z,83.44
2018-08-22T10:03:20.831Z,83.72
2018-08-22T10:04:20.875Z,83.53
2018-08-22T10:05:20.919Z,83.04
2018-08-22T10:06:21.071Z,83.44
2018-08-22T10:07:21.034Z,83.53
2018-08-22T10:08:21.051Z,83.63
2018-08-22T10:09:21.103Z,82.27
2018-08-22T10:10:21.152Z,82.31
2018-08-22T10:11:21.182Z,83.18
2018-08-22T10:12:21.225Z,81.82
2018-08-22T10:13:21.267Z,82.89
2018-08-22T10:14:21.311Z,82.89
2018-08-22T10:15:21.356Z,81.82
2018-08-22T10:16:21.406Z,80.46
2018-08-22T10:17:21.506Z,81.82
2018-08-22T10:18:21.490Z,80.94
2018-08-22T10:19:21.529Z,79.88
2018-08-22T10:20:21.574Z,78.85
2018-08-22T10:21:21.616Z,77.87
2018-08-22T10:22:21.659Z,76.97
2018-08-22T10:23:21.704Z,76.32
2018-08-22T10:24:21.754Z,75.64
2018-08-22T10:25:21.793Z,75.54
2018-08-22T10:26:21.834Z,74.86
2018-08-22T10:27:21.878Z,74.57
2018-08-22T10:28:21.923Z,73.02
2018-08-22T10:29:21.967Z,72.82
2018-08-22T10:30:22.011Z,73.89
2018-08-22T10:31:22.054Z,73.79
2018-08-22T10:32:22.097Z,75.15
2018-08-22T10:33:22.152Z,77.00
2018-08-22T10:34:22.190Z,74.86
2018-08-22T10:35:22.232Z,74.80
2018-08-22T10:36:22.273Z,73.73
2018-08-22T10:37:22.319Z,73.11
2018-08-22T10:38:22.362Z,73.73
2018-08-22T10:39:22.424Z,72.92
2018-08-22T10:40:22.451Z,73.63
2018-08-22T10:41:22.503Z,74.71
2018-08-22T10:42:22.539Z,74.12
2018-08-22T10:43:22.581Z,74.12
2018-08-22T10:44:22.666Z,76.26
2018-08-22T10:45:22.667Z,73.54
2018-08-22T10:46:22.713Z,72.96
2018-08-22T10:47:22.757Z,72.56
2018-08-22T10:48:22.829Z,74.02
2018-08-22T10:49:22.845Z,71.11
2018-08-22T10:50:22.888Z,71.59
2018-08-22T10:51:22.934Z,70.81
2018-08-22T10:52:22.979Z,71.01
2018-08-22T10:53:23.022Z,70.72
2018-08-22T10:54:23.065Z,70.81
2018-08-22T10:55:23.116Z,70.91
2018-08-22T10:56:23.155Z,69.84
2018-08-22T10:57:23.200Z,69.84
2018-08-22T10:58:23.242Z,68.77
2018-08-22T10:59:23.287Z,68.38
2018-08-22T11:00:23.330Z,69.06
2018-08-22T11:01:23.373Z,69.10
2018-08-22T11:02:23.418Z,69.29
2018-08-22T11:03:23.463Z,68.80
2018-08-22T11:04:23.510Z,69.10
2018-08-22T11:05:23.555Z,68.41
2018-08-22T11:06:23.606Z,70.17
2018-08-22T11:07:23.639Z,70.65
2018-08-22T11:08:23.682Z,69.29
2018-08-22T11:09:23.735Z,70.17
2018-08-22T11:10:23.770Z,69.71
2018-08-22T11:11:23.821Z,69.97
2018-08-22T11:12:23.858Z,70.30
2018-08-22T11:13:23.900Z,68.16
2018-08-22T11:14:23.945Z,66.50
2018-08-22T11:15:23.995Z,66.50
2018-08-22T11:16:24.048Z,66.63
2018-08-22T11:17:24.078Z,67.50
2018-08-22T11:18:24.122Z,67.50
2018-08-22T11:19:24.182Z,65.75
2018-08-22T11:20:24.211Z,65.75
2018-08-22T11:21:24.254Z,65.69
2018-08-22T11:22:24.358Z,64.72
2018-08-22T11:23:24.346Z,65.59
2018-08-22T11:24:24.389Z,68.52
2018-08-22T11:25:24.433Z,65.30
2018-08-22T11:26:24.477Z,65.69
2018-08-22T11:27:24.523Z,63.35
2018-08-22T11:28:24.568Z,64.32
2018-08-22T11:29:24.618Z,62.76
2018-08-22T11:30:24.656Z,64.13
2018-08-22T11:31:24.708Z,63.64
2018-08-22T11:32:24.744Z,63.35
2018-08-22T11:33:24.789Z,62.28
2018-08-22T11:34:24.895Z,62.18
2018-08-22T11:35:24.891Z,62.96
2018-08-22T11:36:24.924Z,63.93
2018-08-22T11:37:24.970Z,64.16
2018-08-22T11:38:25.014Z,62.50
2018-08-22T11:39:25.067Z,64.06
2018-08-22T11:40:25.103Z,62.99
2018-08-22T11:41:25.149Z,60.39
2018-08-22T11:42:25.202Z,60.68
2018-08-22T11:43:25.241Z,60.52
2018-08-22T11:44:25.300Z,61.79
2018-08-22T11:45:25.328Z,59.83
2018-08-22T11:46:25.372Z,58.40
2018-08-22T11:47:25.420Z,56.84
2018-08-22T11:48:25.463Z,56.67
2018-08-22T11:49:25.508Z,57.45
2018-08-22T11:50:25.555Z,57.09
2018-08-22T11:51:25.603Z,56.30
2018-08-22T11:52:25.644Z,54.05
2018-08-22T11:53:25.696Z,53.86
2018-08-22T11:54:25.775Z,52.81
2018-08-22T11:55:25.783Z,53.23
2018-08-22T11:56:25.826Z,53.23
2018-08-22T11:57:25.874Z,53.06
2018-08-22T11:58:25.919Z,51.78
2018-08-22T11:59:25.973Z,52.96
2018-08-22T12:00:26.012Z,50.93
2018-08-22T12:01:26.055Z,51.10
2018-08-22T12:02:26.102Z,51.61
2018-08-22T12:03:26.152Z,50.44
2018-08-22T12:04:26.196Z,50.04
2018-08-22T12:05:26.239Z,49.95
2018-08-22T12:06:26.295Z,50.63
2018-08-22T12:07:26.343Z,50.34
2018-08-22T12:08:26.380Z,49.26
2018-08-22T12:09:26.425Z,51.32
2018-08-22T12:10:26.508Z,49.75
2018-08-22T12:11:26.522Z,50.34
2018-08-22T12:12:26.570Z,49.36
2018-08-22T12:13:26.610Z,49.53
2018-08-22T12:14:26.662Z,49.24
2018-08-22T12:15:26.733Z,50.12
2018-08-22T12:16:26.753Z,49.92
2018-08-22T12:17:26.800Z,49.80
2018-08-22T12:18:26.845Z,50.20
2018-08-22T12:19:26.891Z,50.12
2018-08-22T12:20:26.939Z,50.22
2018-08-22T12:21:26.985Z,50.49
2018-08-22T12:22:27.032Z,50.81
2018-08-22T12:23:27.122Z,49.82
2018-08-22T12:24:27.125Z,50.10
2018-08-22T12:25:27.186Z,50.51
2018-08-22T12:26:27.217Z,49.53
2018-08-22T12:27:27.264Z,49.21
2018-08-22T12:28:27.310Z,50.32
2018-08-22T12:29:27.369Z,50.20
2018-08-22T12:30:27.404Z,49.53
2018-08-22T12:31:27.450Z,49.04
2018-08-22T12:32:27.506Z,48.65
2018-08-22T12:33:27.568Z,48.07
2018-08-22T12:34:27.590Z,47.75
2018-08-22T12:35:27.637Z,48.16
2018-08-22T12:36:27.685Z,47.97
2018-08-22T12:37:27.733Z,48.46
2018-08-22T12:38:27.778Z,47.99
2018-08-22T12:39:27.826Z,46.72
2018-08-22T12:40:27.871Z,46.54
2018-08-22T12:41:27.920Z,47.81
2018-08-22T12:42:27.973Z,46.54
2018-08-22T12:43:28.012Z,45.86
2018-08-22T12:44:28.100Z,46.05
2018-08-22T12:45:28.105Z,46.72
2018-08-22T12:46:28.153Z,46.81
2018-08-22T12:47:28.208Z,47.08
2018-08-22T12:48:28.250Z,47.77
2018-08-22T12:49:28.293Z,47.97
2018-08-22T12:50:28.384Z,48.33
2018-08-22T12:51:28.388Z,49.31
2018-08-22T12:52:28.435Z,49.11
2018-08-22T12:53:28.489Z,50.29